sensor_id;sensor_type;location;lat;lon;timestamp;temperature;humidity
20141;DHT22;10231;47.702;9.826;2023-08-21T00:00:03;21.70;99.90
20141;DHT22;10231;47.702;9.826;2023-08-21T00:02:29;21.70;99.90
20141;DHT22;10231;47.702;9.826;2023-08-21T00:04:55;21.60;99.90
20141;DHT22;10231;47.702;9.826;2023-08-21T00:07:21;21.60;99.90
20141;DHT22;10231;47.702;9.826;2023-08-21T00:09:46;21.60;99.90
20141;DHT22;10231;47.702;9.826;2023-08-21T00:12:12;21.70;99.90
20141;DHT22;10231;47.702;9.826;2023-08-21T00:14:37;21.70;99.90
20141;DHT22;10231;47.702;9.826;2023-08-21T00:17:03;21.60;99.90
20141;DHT22;10231;47.702;9.826;2023-08-21T00:19:29;21.60;99.90
20141;DHT22;10231;47.702;9.826;2023-08-21T00:21:55;21.60;99.90
20141;DHT22;10231;47.702;9.826;2023-08-21T00:24:20;21.60;99.90
20141;DHT22;10231;47.702;9.826;2023-08-21T00:26:46;21.50;99.90
20141;DHT22;10231;47.702;9.826;2023-08-21T00:29:12;21.50;99.90
20141;DHT22;10231;47.702;9.826;2023-08-21T00:31:37;21.50;99.90
20141;DHT22;10231;47.702;9.826;2023-08-21T00:34:03;21.40;99.90
20141;DHT22;10231;47.702;9.826;2023-08-21T00:36:28;21.30;99.90
20141;DHT22;10231;47.702;9.826;2023-08-21T00:38:54;21.30;99.90
20141;DHT22;10231;47.702;9.826;2023-08-21T00:41:19;21.30;99.90
20141;DHT22;10231;47.702;9.826;2023-08-21T00:43:45;21.30;99.90
20141;DHT22;10231;47.702;9.826;2023-08-21T00:46:11;21.20;99.90
20141;DHT22;10231;47.702;9.826;2023-08-21T00:48:37;21.10;99.90
20141;DHT22;10231;47.702;9.826;2023-08-21T00:51:03;21.10;99.90
20141;DHT22;10231;47.702;9.826;2023-08-21T00:53:29;21.20;99.90
20141;DHT22;10231;47.702;9.826;2023-08-21T00:55:55;21.10;99.90
20141;DHT22;10231;47.702;9.826;2023-08-21T00:58:21;21.20;99.90
20141;DHT22;10231;47.702;9.826;2023-08-21T01:00:48;21.10;99.90
20141;DHT22;10231;47.702;9.826;2023-08-21T01:03:15;21.10;99.90
20141;DHT22;10231;47.702;9.826;2023-08-21T01:05:41;21.10;99.90
20141;DHT22;10231;47.702;9.826;2023-08-21T01:08:27;21.10;99.90
20141;DHT22;10231;47.702;9.826;2023-08-21T01:14:13;21.10;99.90
20141;DHT22;10231;47.702;9.826;2023-08-21T01:16:43;21.00;99.90
20141;DHT22;10231;47.702;9.826;2023-08-21T01:19:38;21.00;99.90
20141;DHT22;10231;47.702;9.826;2023-08-21T01:22:05;20.90;99.90
20141;DHT22;10231;47.702;9.826;2023-08-21T01:24:31;20.80;99.90
20141;DHT22;10231;47.702;9.826;2023-08-21T01:26:57;20.80;99.90
20141;DHT22;10231;47.702;9.826;2023-08-21T01:29:23;20.60;99.90
20141;DHT22;10231;47.702;9.826;2023-08-21T01:32:21;20.60;99.90
20141;DHT22;10231;47.702;9.826;2023-08-21T01:34:46;20.60;99.90
20141;DHT22;10231;47.702;9.826;2023-08-21T01:37:13;20.50;99.90
20141;DHT22;10231;47.702;9.826;2023-08-21T01:39:39;20.60;99.90
20141;DHT22;10231;47.702;9.826;2023-08-21T01:42:05;20.60;99.90
20141;DHT22;10231;47.702;9.826;2023-08-21T01:44:30;20.50;99.90
20141;DHT22;10231;47.702;9.826;2023-08-21T01:46:56;20.60;99.90
20141;DHT22;10231;47.702;9.826;2023-08-21T01:49:21;20.60;99.90
20141;DHT22;10231;47.702;9.826;2023-08-21T01:51:47;20.50;99.90
20141;DHT22;10231;47.702;9.826;2023-08-21T01:54:12;20.50;99.90
20141;DHT22;10231;47.702;9.826;2023-08-21T01:56:38;20.50;99.90
20141;DHT22;10231;47.702;9.826;2023-08-21T01:59:07;20.50;99.90
20141;DHT22;10231;47.702;9.826;2023-08-21T02:01:33;20.50;99.90
20141;DHT22;10231;47.702;9.826;2023-08-21T02:03:59;20.50;99.90
20141;DHT22;10231;47.702;9.826;2023-08-21T02:06:24;20.50;99.90
20141;DHT22;10231;47.702;9.826;2023-08-21T02:08:50;20.40;99.90
20141;DHT22;10231;47.702;9.826;2023-08-21T02:11:15;20.40;99.90
20141;DHT22;10231;47.702;9.826;2023-08-21T02:13:41;20.40;99.90
20141;DHT22;10231;47.702;9.826;2023-08-21T02:16:07;20.40;99.90
20141;DHT22;10231;47.702;9.826;2023-08-21T02:18:32;20.30;99.90
20141;DHT22;10231;47.702;9.826;2023-08-21T02:21:01;20.30;99.90
20141;DHT22;10231;47.702;9.826;2023-08-21T02:23:27;20.20;99.90
20141;DHT22;10231;47.702;9.826;2023-08-21T02:25:53;20.20;99.90
20141;DHT22;10231;47.702;9.826;2023-08-21T02:28:19;20.20;99.90
20141;DHT22;10231;47.702;9.826;2023-08-21T02:30:45;20.10;99.90
20141;DHT22;10231;47.702;9.826;2023-08-21T02:33:11;20.10;99.90
20141;DHT22;10231;47.702;9.826;2023-08-21T02:35:36;20.00;99.90
20141;DHT22;10231;47.702;9.826;2023-08-21T02:38:02;20.00;99.90
20141;DHT22;10231;47.702;9.826;2023-08-21T02:40:27;19.90;99.90
20141;DHT22;10231;47.702;9.826;2023-08-21T02:42:53;20.00;99.90
20141;DHT22;10231;47.702;9.826;2023-08-21T02:45:19;19.90;99.90
20141;DHT22;10231;47.702;9.826;2023-08-21T02:47:44;19.90;99.90
20141;DHT22;10231;47.702;9.826;2023-08-21T02:50:11;19.80;99.90
20141;DHT22;10231;47.702;9.826;2023-08-21T02:52:37;19.90;99.90
20141;DHT22;10231;47.702;9.826;2023-08-21T02:55:03;19.90;99.90
20141;DHT22;10231;47.702;9.826;2023-08-21T02:57:29;19.90;99.90
20141;DHT22;10231;47.702;9.826;2023-08-21T02:59:55;19.90;99.90
20141;DHT22;10231;47.702;9.826;2023-08-21T03:02:21;19.90;99.90
20141;DHT22;10231;47.702;9.826;2023-08-21T03:04:47;20.00;99.90
20141;DHT22;10231;47.702;9.826;2023-08-21T03:07:13;20.00;99.90
20141;DHT22;10231;47.702;9.826;2023-08-21T03:09:40;20.00;99.90
20141;DHT22;10231;47.702;9.826;2023-08-21T03:12:06;20.00;99.90
20141;DHT22;10231;47.702;9.826;2023-08-21T03:14:32;19.90;99.90
20141;DHT22;10231;47.702;9.826;2023-08-21T03:16:57;19.90;99.90
20141;DHT22;10231;47.702;9.826;2023-08-21T03:19:23;19.80;99.90
20141;DHT22;10231;47.702;9.826;2023-08-21T03:21:48;19.80;99.90
20141;DHT22;10231;47.702;9.826;2023-08-21T03:24:14;19.90;99.90
20141;DHT22;10231;47.702;9.826;2023-08-21T03:26:40;19.90;99.90
20141;DHT22;10231;47.702;9.826;2023-08-21T03:29:05;19.90;99.90
20141;DHT22;10231;47.702;9.826;2023-08-21T03:31:31;19.80;99.90
20141;DHT22;10231;47.702;9.826;2023-08-21T03:33:56;19.80;99.90
20141;DHT22;10231;47.702;9.826;2023-08-21T03:36:23;19.80;99.90
20141;DHT22;10231;47.702;9.826;2023-08-21T03:38:59;19.90;99.90
20141;DHT22;10231;47.702;9.826;2023-08-21T03:41:25;19.90;99.90
20141;DHT22;10231;47.702;9.826;2023-08-21T03:43:51;19.80;99.90
20141;DHT22;10231;47.702;9.826;2023-08-21T03:46:17;19.70;99.90
20141;DHT22;10231;47.702;9.826;2023-08-21T03:48:42;19.70;99.90
20141;DHT22;10231;47.702;9.826;2023-08-21T03:51:08;19.60;99.90
20141;DHT22;10231;47.702;9.826;2023-08-21T03:53:34;19.50;99.90
20141;DHT22;10231;47.702;9.826;2023-08-21T03:56:00;19.50;99.90
20141;DHT22;10231;47.702;9.826;2023-08-21T03:58:25;19.50;99.90
20141;DHT22;10231;47.702;9.826;2023-08-21T04:00:52;19.50;99.90
20141;DHT22;10231;47.702;9.826;2023-08-21T04:03:18;19.50;99.90
20141;DHT22;10231;47.702;9.826;2023-08-21T04:05:44;19.40;99.90
20141;DHT22;10231;47.702;9.826;2023-08-21T04:08:09;19.40;99.90
20141;DHT22;10231;47.702;9.826;2023-08-21T04:10:35;19.30;99.90
20141;DHT22;10231;47.702;9.826;2023-08-21T04:13:00;19.40;99.90
20141;DHT22;10231;47.702;9.826;2023-08-21T04:15:26;19.40;99.90
20141;DHT22;10231;47.702;9.826;2023-08-21T04:17:52;19.40;99.90
20141;DHT22;10231;47.702;9.826;2023-08-21T04:20:19;19.50;99.90
20141;DHT22;10231;47.702;9.826;2023-08-21T04:22:45;19.40;99.90
20141;DHT22;10231;47.702;9.826;2023-08-21T04:25:10;19.40;99.90
20141;DHT22;10231;47.702;9.826;2023-08-21T04:27:36;19.40;99.90
20141;DHT22;10231;47.702;9.826;2023-08-21T04:30:02;19.40;99.90
20141;DHT22;10231;47.702;9.826;2023-08-21T04:32:28;19.40;99.90
20141;DHT22;10231;47.702;9.826;2023-08-21T04:34:53;19.40;99.90
20141;DHT22;10231;47.702;9.826;2023-08-21T04:37:19;19.40;99.90
20141;DHT22;10231;47.702;9.826;2023-08-21T04:39:44;19.40;99.90
20141;DHT22;10231;47.702;9.826;2023-08-21T04:42:11;19.40;99.90
20141;DHT22;10231;47.702;9.826;2023-08-21T04:44:36;19.40;99.90
20141;DHT22;10231;47.702;9.826;2023-08-21T04:49:45;19.40;99.90
20141;DHT22;10231;47.702;9.826;2023-08-21T04:52:10;19.30;99.90
20141;DHT22;10231;47.702;9.826;2023-08-21T04:54:36;19.30;99.90
20141;DHT22;10231;47.702;9.826;2023-08-21T04:57:01;19.30;99.90
20141;DHT22;10231;47.702;9.826;2023-08-21T04:59:27;19.30;99.90
20141;DHT22;10231;47.702;9.826;2023-08-21T05:01:52;19.40;99.90
20141;DHT22;10231;47.702;9.826;2023-08-21T05:04:18;19.30;99.90
20141;DHT22;10231;47.702;9.826;2023-08-21T05:06:43;19.40;99.90
20141;DHT22;10231;47.702;9.826;2023-08-21T05:09:09;19.40;99.90
20141;DHT22;10231;47.702;9.826;2023-08-21T05:11:34;19.40;99.90
20141;DHT22;10231;47.702;9.826;2023-08-21T05:14:00;19.40;99.90
20141;DHT22;10231;47.702;9.826;2023-08-21T05:16:25;19.50;99.90
20141;DHT22;10231;47.702;9.826;2023-08-21T05:18:51;19.50;99.90
20141;DHT22;10231;47.702;9.826;2023-08-21T05:21:17;19.60;99.90
20141;DHT22;10231;47.702;9.826;2023-08-21T05:23:42;19.60;99.90
20141;DHT22;10231;47.702;9.826;2023-08-21T05:26:08;19.60;99.90
20141;DHT22;10231;47.702;9.826;2023-08-21T05:28:33;19.60;99.90
20141;DHT22;10231;47.702;9.826;2023-08-21T05:30:59;19.70;99.90
20141;DHT22;10231;47.702;9.826;2023-08-21T05:33:24;19.80;99.90
20141;DHT22;10231;47.702;9.826;2023-08-21T05:35:50;19.80;99.90
20141;DHT22;10231;47.702;9.826;2023-08-21T05:38:15;19.90;99.90
20141;DHT22;10231;47.702;9.826;2023-08-21T05:40:41;19.90;99.90
20141;DHT22;10231;47.702;9.826;2023-08-21T05:43:10;20.00;99.90
20141;DHT22;10231;47.702;9.826;2023-08-21T05:45:35;20.00;99.90
20141;DHT22;10231;47.702;9.826;2023-08-21T05:48:01;20.10;99.90
20141;DHT22;10231;47.702;9.826;2023-08-21T05:50:26;20.10;99.90
20141;DHT22;10231;47.702;9.826;2023-08-21T05:52:52;20.10;99.90
20141;DHT22;10231;47.702;9.826;2023-08-21T05:55:19;20.20;99.90
20141;DHT22;10231;47.702;9.826;2023-08-21T05:57:45;20.30;99.90
20141;DHT22;10231;47.702;9.826;2023-08-21T06:00:11;20.30;99.90
20141;DHT22;10231;47.702;9.826;2023-08-21T06:02:37;20.30;99.90
20141;DHT22;10231;47.702;9.826;2023-08-21T06:05:03;20.40;99.90
20141;DHT22;10231;47.702;9.826;2023-08-21T06:07:28;20.50;99.90
20141;DHT22;10231;47.702;9.826;2023-08-21T06:09:54;20.50;99.90
20141;DHT22;10231;47.702;9.826;2023-08-21T06:12:20;20.60;99.90
20141;DHT22;10231;47.702;9.826;2023-08-21T06:14:45;20.70;99.90
20141;DHT22;10231;47.702;9.826;2023-08-21T06:17:11;20.70;99.90
20141;DHT22;10231;47.702;9.826;2023-08-21T06:19:36;20.90;99.90
20141;DHT22;10231;47.702;9.826;2023-08-21T06:22:02;20.90;99.90
20141;DHT22;10231;47.702;9.826;2023-08-21T06:24:27;21.00;99.90
20141;DHT22;10231;47.702;9.826;2023-08-21T06:26:53;21.10;99.90
20141;DHT22;10231;47.702;9.826;2023-08-21T06:29:19;21.10;99.90
20141;DHT22;10231;47.702;9.826;2023-08-21T06:31:46;21.20;99.90
20141;DHT22;10231;47.702;9.826;2023-08-21T06:34:12;21.20;99.90
20141;DHT22;10231;47.702;9.826;2023-08-21T06:36:38;21.30;99.90
20141;DHT22;10231;47.702;9.826;2023-08-21T06:39:05;21.40;99.90
20141;DHT22;10231;47.702;9.826;2023-08-21T06:41:30;21.40;99.90
20141;DHT22;10231;47.702;9.826;2023-08-21T06:43:57;21.50;99.90
20141;DHT22;10231;47.702;9.826;2023-08-21T06:46:23;21.60;99.90
20141;DHT22;10231;47.702;9.826;2023-08-21T06:48:48;21.60;99.90
20141;DHT22;10231;47.702;9.826;2023-08-21T06:51:15;21.70;99.90
20141;DHT22;10231;47.702;9.826;2023-08-21T06:53:41;21.80;99.90
20141;DHT22;10231;47.702;9.826;2023-08-21T06:56:07;21.80;99.90
20141;DHT22;10231;47.702;9.826;2023-08-21T06:58:32;21.90;99.90
20141;DHT22;10231;47.702;9.826;2023-08-21T07:01:00;22.00;99.90
20141;DHT22;10231;47.702;9.826;2023-08-21T07:03:25;22.20;99.90
20141;DHT22;10231;47.702;9.826;2023-08-21T07:05:57;22.20;99.90
20141;DHT22;10231;47.702;9.826;2023-08-21T07:08:24;22.30;99.90
20141;DHT22;10231;47.702;9.826;2023-08-21T07:10:50;22.40;99.90
20141;DHT22;10231;47.702;9.826;2023-08-21T07:13:16;22.50;99.90
20141;DHT22;10231;47.702;9.826;2023-08-21T07:15:41;22.50;99.90
20141;DHT22;10231;47.702;9.826;2023-08-21T07:18:07;22.60;99.90
20141;DHT22;10231;47.702;9.826;2023-08-21T07:20:33;22.60;99.90
20141;DHT22;10231;47.702;9.826;2023-08-21T07:22:59;22.70;99.90
20141;DHT22;10231;47.702;9.826;2023-08-21T07:25:24;22.70;99.90
20141;DHT22;10231;47.702;9.826;2023-08-21T07:27:51;22.80;99.90
20141;DHT22;10231;47.702;9.826;2023-08-21T07:30:19;22.90;99.90
20141;DHT22;10231;47.702;9.826;2023-08-21T07:32:45;23.00;99.90
20141;DHT22;10231;47.702;9.826;2023-08-21T07:35:10;23.00;99.90
20141;DHT22;10231;47.702;9.826;2023-08-21T07:37:36;23.10;99.90
20141;DHT22;10231;47.702;9.826;2023-08-21T07:40:02;23.10;99.90
20141;DHT22;10231;47.702;9.826;2023-08-21T07:42:28;23.20;99.90
20141;DHT22;10231;47.702;9.826;2023-08-21T07:44:53;23.30;99.90
20141;DHT22;10231;47.702;9.826;2023-08-21T07:47:19;23.30;99.90
20141;DHT22;10231;47.702;9.826;2023-08-21T07:49:44;23.40;99.90
20141;DHT22;10231;47.702;9.826;2023-08-21T07:52:10;23.50;99.90
20141;DHT22;10231;47.702;9.826;2023-08-21T07:54:35;23.50;99.90
20141;DHT22;10231;47.702;9.826;2023-08-21T07:57:01;23.60;99.90
20141;DHT22;10231;47.702;9.826;2023-08-21T07:59:29;23.60;99.90
20141;DHT22;10231;47.702;9.826;2023-08-21T08:01:54;23.70;99.90
20141;DHT22;10231;47.702;9.826;2023-08-21T08:04:21;23.80;99.90
20141;DHT22;10231;47.702;9.826;2023-08-21T08:06:46;23.90;99.90
20141;DHT22;10231;47.702;9.826;2023-08-21T08:09:12;23.90;99.90
20141;DHT22;10231;47.702;9.826;2023-08-21T08:11:37;24.00;99.90
20141;DHT22;10231;47.702;9.826;2023-08-21T08:14:03;23.90;99.90
20141;DHT22;10231;47.702;9.826;2023-08-21T08:16:29;24.00;99.90
20141;DHT22;10231;47.702;9.826;2023-08-21T08:18:54;24.10;99.90
20141;DHT22;10231;47.702;9.826;2023-08-21T08:21:20;24.10;99.90
20141;DHT22;10231;47.702;9.826;2023-08-21T08:23:45;24.10;99.90
20141;DHT22;10231;47.702;9.826;2023-08-21T08:26:11;24.10;99.90
20141;DHT22;10231;47.702;9.826;2023-08-21T08:28:36;24.10;99.90
20141;DHT22;10231;47.702;9.826;2023-08-21T08:31:02;24.10;99.90
20141;DHT22;10231;47.702;9.826;2023-08-21T08:33:28;24.20;99.90
20141;DHT22;10231;47.702;9.826;2023-08-21T08:35:53;24.20;99.90
20141;DHT22;10231;47.702;9.826;2023-08-21T08:38:19;24.40;99.90
20141;DHT22;10231;47.702;9.826;2023-08-21T08:40:46;24.40;99.90
20141;DHT22;10231;47.702;9.826;2023-08-21T08:43:12;24.40;99.90
20141;DHT22;10231;47.702;9.826;2023-08-21T08:45:40;24.40;99.90
20141;DHT22;10231;47.702;9.826;2023-08-21T08:48:06;24.50;99.90
20141;DHT22;10231;47.702;9.826;2023-08-21T08:50:33;24.50;99.90
20141;DHT22;10231;47.702;9.826;2023-08-21T08:53:00;24.50;99.90
20141;DHT22;10231;47.702;9.826;2023-08-21T08:55:26;24.60;99.90
20141;DHT22;10231;47.702;9.826;2023-08-21T08:57:53;24.70;99.90
20141;DHT22;10231;47.702;9.826;2023-08-21T09:00:19;24.70;99.90
20141;DHT22;10231;47.702;9.826;2023-08-21T09:02:46;24.70;99.90
20141;DHT22;10231;47.702;9.826;2023-08-21T09:05:11;24.80;99.90
20141;DHT22;10231;47.702;9.826;2023-08-21T09:07:38;24.80;99.90
20141;DHT22;10231;47.702;9.826;2023-08-21T09:10:04;24.80;99.90
20141;DHT22;10231;47.702;9.826;2023-08-21T09:12:33;24.80;99.90
20141;DHT22;10231;47.702;9.826;2023-08-21T09:14:59;24.90;99.90
20141;DHT22;10231;47.702;9.826;2023-08-21T09:17:26;25.00;99.90
20141;DHT22;10231;47.702;9.826;2023-08-21T09:19:52;25.00;99.90
20141;DHT22;10231;47.702;9.826;2023-08-21T09:22:18;25.00;99.90
20141;DHT22;10231;47.702;9.826;2023-08-21T09:27:35;25.00;99.90
20141;DHT22;10231;47.702;9.826;2023-08-21T09:30:04;25.10;99.90
20141;DHT22;10231;47.702;9.826;2023-08-21T09:32:30;25.10;99.90
20141;DHT22;10231;47.702;9.826;2023-08-21T09:34:56;25.10;99.90
20141;DHT22;10231;47.702;9.826;2023-08-21T09:37:28;25.20;99.90
20141;DHT22;10231;47.702;9.826;2023-08-21T09:40:00;25.30;99.90
20141;DHT22;10231;47.702;9.826;2023-08-21T09:42:26;25.30;99.90
20141;DHT22;10231;47.702;9.826;2023-08-21T09:44:52;25.30;99.90
20141;DHT22;10231;47.702;9.826;2023-08-21T09:47:18;25.40;99.90
20141;DHT22;10231;47.702;9.826;2023-08-21T09:49:45;25.50;99.90
20141;DHT22;10231;47.702;9.826;2023-08-21T09:52:10;25.50;99.90
20141;DHT22;10231;47.702;9.826;2023-08-21T09:54:38;25.50;99.90
20141;DHT22;10231;47.702;9.826;2023-08-21T09:57:04;25.50;99.90
20141;DHT22;10231;47.702;9.826;2023-08-21T09:59:30;25.50;99.90
20141;DHT22;10231;47.702;9.826;2023-08-21T10:01:59;25.50;99.90
20141;DHT22;10231;47.702;9.826;2023-08-21T10:04:26;25.60;99.90
20141;DHT22;10231;47.702;9.826;2023-08-21T10:06:54;25.60;99.90
20141;DHT22;10231;47.702;9.826;2023-08-21T10:09:22;25.60;99.90
20141;DHT22;10231;47.702;9.826;2023-08-21T10:11:48;25.70;99.90
20141;DHT22;10231;47.702;9.826;2023-08-21T10:14:15;25.60;99.90
20141;DHT22;10231;47.702;9.826;2023-08-21T10:16:41;25.60;99.90
20141;DHT22;10231;47.702;9.826;2023-08-21T10:19:07;25.70;99.90
20141;DHT22;10231;47.702;9.826;2023-08-21T10:21:37;25.80;99.90
20141;DHT22;10231;47.702;9.826;2023-08-21T10:24:03;25.80;99.90
20141;DHT22;10231;47.702;9.826;2023-08-21T10:26:29;25.90;99.90
20141;DHT22;10231;47.702;9.826;2023-08-21T10:28:57;25.90;99.90
20141;DHT22;10231;47.702;9.826;2023-08-21T10:31:40;26.00;99.90
20141;DHT22;10231;47.702;9.826;2023-08-21T10:34:08;26.00;99.90
20141;DHT22;10231;47.702;9.826;2023-08-21T10:42:01;26.20;99.90
20141;DHT22;10231;47.702;9.826;2023-08-21T10:44:57;26.20;99.90
20141;DHT22;10231;47.702;9.826;2023-08-21T10:49:54;26.40;99.90
20141;DHT22;10231;47.702;9.826;2023-08-21T10:52:37;26.50;99.90
20141;DHT22;10231;47.702;9.826;2023-08-21T10:55:04;26.50;99.90
20141;DHT22;10231;47.702;9.826;2023-08-21T10:57:30;26.40;99.90
20141;DHT22;10231;47.702;9.826;2023-08-21T11:00:01;26.40;99.90
20141;DHT22;10231;47.702;9.826;2023-08-21T11:02:31;26.50;99.90
20141;DHT22;10231;47.702;9.826;2023-08-21T11:04:58;26.50;99.90
20141;DHT22;10231;47.702;9.826;2023-08-21T11:07:24;26.60;99.90
20141;DHT22;10231;47.702;9.826;2023-08-21T11:09:50;26.60;99.90
20141;DHT22;10231;47.702;9.826;2023-08-21T11:12:18;26.60;99.90
20141;DHT22;10231;47.702;9.826;2023-08-21T11:14:44;26.70;99.90
20141;DHT22;10231;47.702;9.826;2023-08-21T11:17:10;26.70;99.90
20141;DHT22;10231;47.702;9.826;2023-08-21T11:19:37;26.70;99.90
20141;DHT22;10231;47.702;9.826;2023-08-21T11:22:04;26.80;99.90
20141;DHT22;10231;47.702;9.826;2023-08-21T11:24:42;26.80;99.90
20141;DHT22;10231;47.702;9.826;2023-08-21T11:27:16;26.90;99.90
20141;DHT22;10231;47.702;9.826;2023-08-21T11:29:44;26.90;99.90
20141;DHT22;10231;47.702;9.826;2023-08-21T11:32:14;26.90;99.90
20141;DHT22;10231;47.702;9.826;2023-08-21T11:34:47;27.00;99.90
20141;DHT22;10231;47.702;9.826;2023-08-21T11:37:13;27.00;99.90
20141;DHT22;10231;47.702;9.826;2023-08-21T11:39:50;27.10;99.90
20141;DHT22;10231;47.702;9.826;2023-08-21T11:42:22;27.10;99.90
20141;DHT22;10231;47.702;9.826;2023-08-21T11:44:52;27.10;99.90
20141;DHT22;10231;47.702;9.826;2023-08-21T11:47:19;27.20;99.90
20141;DHT22;10231;47.702;9.826;2023-08-21T11:49:46;27.20;99.90
20141;DHT22;10231;47.702;9.826;2023-08-21T11:52:19;27.30;99.90
20141;DHT22;10231;47.702;9.826;2023-08-21T11:54:48;27.30;99.90
20141;DHT22;10231;47.702;9.826;2023-08-21T11:57:14;27.40;99.90
20141;DHT22;10231;47.702;9.826;2023-08-21T11:59:40;27.50;99.90
20141;DHT22;10231;47.702;9.826;2023-08-21T12:02:14;27.60;99.90
20141;DHT22;10231;47.702;9.826;2023-08-21T12:04:40;27.70;99.90
20141;DHT22;10231;47.702;9.826;2023-08-21T12:07:05;27.80;99.90
20141;DHT22;10231;47.702;9.826;2023-08-21T12:09:31;27.80;99.90
20141;DHT22;10231;47.702;9.826;2023-08-21T12:11:57;27.80;99.90
20141;DHT22;10231;47.702;9.826;2023-08-21T12:14:23;27.70;99.90
20141;DHT22;10231;47.702;9.826;2023-08-21T12:16:48;27.70;99.90
20141;DHT22;10231;47.702;9.826;2023-08-21T12:19:14;27.80;99.90
20141;DHT22;10231;47.702;9.826;2023-08-21T12:21:40;27.90;99.90
20141;DHT22;10231;47.702;9.826;2023-08-21T12:24:06;27.90;99.90
20141;DHT22;10231;47.702;9.826;2023-08-21T12:26:34;28.00;99.90
20141;DHT22;10231;47.702;9.826;2023-08-21T12:29:00;28.10;99.90
20141;DHT22;10231;47.702;9.826;2023-08-21T12:31:26;28.10;99.90
20141;DHT22;10231;47.702;9.826;2023-08-21T12:33:52;28.10;99.90
20141;DHT22;10231;47.702;9.826;2023-08-21T12:36:17;28.30;99.90
20141;DHT22;10231;47.702;9.826;2023-08-21T12:38:43;28.30;99.90
20141;DHT22;10231;47.702;9.826;2023-08-21T12:41:08;28.40;99.90
20141;DHT22;10231;47.702;9.826;2023-08-21T12:43:34;28.50;99.90
20141;DHT22;10231;47.702;9.826;2023-08-21T12:45:59;28.60;99.90
20141;DHT22;10231;47.702;9.826;2023-08-21T12:48:25;28.70;99.90
20141;DHT22;10231;47.702;9.826;2023-08-21T12:50:50;28.80;99.90
20141;DHT22;10231;47.702;9.826;2023-08-21T12:53:16;28.90;99.90
20141;DHT22;10231;47.702;9.826;2023-08-21T12:55:42;28.90;99.90
20141;DHT22;10231;47.702;9.826;2023-08-21T12:58:08;29.00;99.90
20141;DHT22;10231;47.702;9.826;2023-08-21T13:00:34;29.00;99.90
20141;DHT22;10231;47.702;9.826;2023-08-21T13:02:59;29.10;99.90
20141;DHT22;10231;47.702;9.826;2023-08-21T13:05:25;29.20;99.90
20141;DHT22;10231;47.702;9.826;2023-08-21T13:07:50;29.30;99.90
20141;DHT22;10231;47.702;9.826;2023-08-21T13:10:16;29.40;99.90
20141;DHT22;10231;47.702;9.826;2023-08-21T13:12:41;29.60;99.90
20141;DHT22;10231;47.702;9.826;2023-08-21T13:15:07;29.60;99.90
20141;DHT22;10231;47.702;9.826;2023-08-21T13:17:34;29.70;99.90
20141;DHT22;10231;47.702;9.826;2023-08-21T13:20:00;29.80;99.90
20141;DHT22;10231;47.702;9.826;2023-08-21T13:22:25;30.00;99.90
20141;DHT22;10231;47.702;9.826;2023-08-21T13:24:51;30.10;99.90
20141;DHT22;10231;47.702;9.826;2023-08-21T13:27:16;30.20;99.90
20141;DHT22;10231;47.702;9.826;2023-08-21T13:29:42;30.30;99.90
20141;DHT22;10231;47.702;9.826;2023-08-21T13:32:07;30.40;99.00
20141;DHT22;10231;47.702;9.826;2023-08-21T13:34:33;30.40;99.80
20141;DHT22;10231;47.702;9.826;2023-08-21T13:36:59;30.50;98.50
20141;DHT22;10231;47.702;9.826;2023-08-21T13:39:24;30.60;98.40
20141;DHT22;10231;47.702;9.826;2023-08-21T13:41:51;30.70;99.20
20141;DHT22;10231;47.702;9.826;2023-08-21T13:44:17;30.90;99.00
20141;DHT22;10231;47.702;9.826;2023-08-21T13:46:43;31.00;99.50
20141;DHT22;10231;47.702;9.826;2023-08-21T13:49:09;31.10;99.60
20141;DHT22;10231;47.702;9.826;2023-08-21T13:51:34;31.20;99.90
20141;DHT22;10231;47.702;9.826;2023-08-21T13:54:00;31.30;97.80
20141;DHT22;10231;47.702;9.826;2023-08-21T13:56:26;31.40;98.20
20141;DHT22;10231;47.702;9.826;2023-08-21T13:58:51;31.50;97.60
20141;DHT22;10231;47.702;9.826;2023-08-21T14:01:17;31.60;95.40
20141;DHT22;10231;47.702;9.826;2023-08-21T14:03:42;31.60;94.40
20141;DHT22;10231;47.702;9.826;2023-08-21T14:06:08;31.70;96.20
20141;DHT22;10231;47.702;9.826;2023-08-21T14:08:37;31.70;95.10
20141;DHT22;10231;47.702;9.826;2023-08-21T14:11:02;31.80;95.40
20141;DHT22;10231;47.702;9.826;2023-08-21T14:13:28;31.90;95.80
20141;DHT22;10231;47.702;9.826;2023-08-21T14:15:54;32.00;93.80
20141;DHT22;10231;47.702;9.826;2023-08-21T14:18:19;32.10;94.30
20141;DHT22;10231;47.702;9.826;2023-08-21T14:20:45;32.20;93.50
20141;DHT22;10231;47.702;9.826;2023-08-21T14:23:10;32.30;93.70
20141;DHT22;10231;47.702;9.826;2023-08-21T14:25:36;32.40;93.00
20141;DHT22;10231;47.702;9.826;2023-08-21T14:28:03;32.50;94.00
20141;DHT22;10231;47.702;9.826;2023-08-21T14:30:29;32.50;92.20
20141;DHT22;10231;47.702;9.826;2023-08-21T14:32:55;32.70;93.70
20141;DHT22;10231;47.702;9.826;2023-08-21T14:35:21;32.80;93.00
20141;DHT22;10231;47.702;9.826;2023-08-21T14:37:47;32.90;93.00
20141;DHT22;10231;47.702;9.826;2023-08-21T14:40:12;33.00;94.90
20141;DHT22;10231;47.702;9.826;2023-08-21T14:42:38;33.10;92.30
20141;DHT22;10231;47.702;9.826;2023-08-21T14:45:04;33.10;91.80
20141;DHT22;10231;47.702;9.826;2023-08-21T14:47:31;33.10;91.60
20141;DHT22;10231;47.702;9.826;2023-08-21T14:49:56;33.10;90.10
20141;DHT22;10231;47.702;9.826;2023-08-21T14:52:23;33.30;90.20
20141;DHT22;10231;47.702;9.826;2023-08-21T14:54:50;33.40;90.20
20141;DHT22;10231;47.702;9.826;2023-08-21T14:57:16;33.50;87.70
20141;DHT22;10231;47.702;9.826;2023-08-21T14:59:42;33.60;87.10
20141;DHT22;10231;47.702;9.826;2023-08-21T15:02:07;33.70;80.80
20141;DHT22;10231;47.702;9.826;2023-08-21T15:04:33;33.80;81.60
20141;DHT22;10231;47.702;9.826;2023-08-21T15:06:58;33.90;79.00
20141;DHT22;10231;47.702;9.826;2023-08-21T15:09:24;33.90;83.00
20141;DHT22;10231;47.702;9.826;2023-08-21T15:11:49;34.10;80.90
20141;DHT22;10231;47.702;9.826;2023-08-21T15:14:15;34.30;80.20
20141;DHT22;10231;47.702;9.826;2023-08-21T15:16:40;34.30;79.30
20141;DHT22;10231;47.702;9.826;2023-08-21T15:19:06;34.40;80.70
20141;DHT22;10231;47.702;9.826;2023-08-21T15:21:32;34.50;81.20
20141;DHT22;10231;47.702;9.826;2023-08-21T15:23:57;34.70;80.00
20141;DHT22;10231;47.702;9.826;2023-08-21T15:26:23;34.80;80.70
20141;DHT22;10231;47.702;9.826;2023-08-21T15:28:48;34.90;78.90
20141;DHT22;10231;47.702;9.826;2023-08-21T15:31:14;35.00;79.10
20141;DHT22;10231;47.702;9.826;2023-08-21T15:33:40;35.30;82.80
20141;DHT22;10231;47.702;9.826;2023-08-21T15:36:05;35.40;88.50
20141;DHT22;10231;47.702;9.826;2023-08-21T15:38:31;35.50;81.40
20141;DHT22;10231;47.702;9.826;2023-08-21T15:40:56;35.50;79.40